createdAt,value
2022-12-22T00:00:11.815Z,9.23
2022-12-22T00:01:11.797Z,9.23
2022-12-22T00:02:11.927Z,9.21
2022-12-22T00:03:11.961Z,9.23
2022-12-22T00:04:11.910Z,9.18
2022-12-22T00:05:11.719Z,9.18
2022-12-22T00:06:11.673Z,9.17
2022-12-22T00:07:11.644Z,9.23
2022-12-22T00:08:11.619Z,9.15
2022-12-22T00:09:11.597Z,9.14
2022-12-22T00:10:11.567Z,9.24
2022-12-22T00:11:11.549Z,9.32
2022-12-22T00:12:11.513Z,9.26
2022-12-22T00:13:11.500Z,9.23
2022-12-22T00:14:11.499Z,9.28
2022-12-22T00:15:11.447Z,9.26
2022-12-22T00:16:11.435Z,9.29
2022-12-22T00:17:11.500Z,9.23
2022-12-22T00:18:11.381Z,9.24
2022-12-22T00:19:11.339Z,9.24
2022-12-22T00:20:18.172Z,9.21
2022-12-22T00:21:11.336Z,9.23
2022-12-22T00:22:11.263Z,9.28
2022-12-22T00:23:11.240Z,9.17
2022-12-22T00:24:11.246Z,9.21
2022-12-22T00:25:11.191Z,9.24
2022-12-22T00:26:11.164Z,9.31
2022-12-22T00:27:11.146Z,9.24
2022-12-22T00:28:11.112Z,9.26
2022-12-22T00:29:11.084Z,9.21
2022-12-22T00:30:11.075Z,9.26
2022-12-22T00:31:11.191Z,9.20
2022-12-22T00:32:11.008Z,9.20
2022-12-22T00:33:10.987Z,9.20
2022-12-22T00:34:10.956Z,9.23
2022-12-22T00:35:10.955Z,9.24
2022-12-22T00:36:10.906Z,9.24
2022-12-22T00:37:10.909Z,9.14
2022-12-22T00:38:10.866Z,9.21
2022-12-22T00:39:10.836Z,9.23
2022-12-22T00:40:10.808Z,9.18
2022-12-22T00:41:10.786Z,9.17
2022-12-22T00:42:10.761Z,9.08
2022-12-22T00:43:10.743Z,9.15
2022-12-22T00:44:10.711Z,9.18
2022-12-22T00:45:10.681Z,9.10
2022-12-22T00:46:10.728Z,9.15
2022-12-22T00:47:10.631Z,9.13
2022-12-22T00:48:10.608Z,9.17
2022-12-22T00:49:10.602Z,9.15
2022-12-22T00:50:10.554Z,9.17
2022-12-22T00:51:10.581Z,9.15
2022-12-22T00:52:10.513Z,9.10
2022-12-22T00:53:10.507Z,9.17
2022-12-22T00:54:10.464Z,9.11
2022-12-22T00:55:10.432Z,9.17
2022-12-22T00:56:10.410Z,9.18
2022-12-22T00:57:10.383Z,9.17
2022-12-22T00:58:10.349Z,9.15
2022-12-22T00:59:10.328Z,9.14
2022-12-22T01:00:10.309Z,9.14
2022-12-22T01:01:10.370Z,9.05
2022-12-22T01:02:10.465Z,9.14
2022-12-22T01:03:10.395Z,9.18
2022-12-22T01:04:10.201Z,9.13
2022-12-22T01:05:10.186Z,9.08
2022-12-22T01:06:10.147Z,9.11
2022-12-22T01:07:10.128Z,9.18
2022-12-22T01:08:10.109Z,9.15
2022-12-22T01:09:10.107Z,9.23
2022-12-22T01:10:10.085Z,9.15
2022-12-22T01:11:10.025Z,9.24
2022-12-22T01:12:10.005Z,9.20
2022-12-22T01:13:09.969Z,9.23
2022-12-22T01:14:09.950Z,9.20
2022-12-22T01:15:09.929Z,9.18
2022-12-22T01:16:09.960Z,9.20
2022-12-22T01:17:09.871Z,9.18
2022-12-22T01:18:09.853Z,9.18
2022-12-22T01:19:09.825Z,9.31
2022-12-22T01:20:09.818Z,9.18
2022-12-22T01:21:09.778Z,9.23
2022-12-22T01:22:09.750Z,9.31
2022-12-22T01:23:09.726Z,9.21
2022-12-22T01:24:09.697Z,9.20
2022-12-22T01:25:09.698Z,9.23
2022-12-22T01:26:09.647Z,9.21
2022-12-22T01:27:09.620Z,9.23
2022-12-22T01:28:09.603Z,9.31
2022-12-22T01:29:09.571Z,9.26
2022-12-22T01:30:09.548Z,9.24
2022-12-22T01:31:09.591Z,9.26
2022-12-22T01:32:09.492Z,9.26
2022-12-22T01:33:09.466Z,9.23
2022-12-22T01:34:09.448Z,9.26
2022-12-22T01:35:09.422Z,9.28
2022-12-22T01:36:09.403Z,9.18
2022-12-22T01:37:09.365Z,9.29
2022-12-22T01:38:09.353Z,9.32
2022-12-22T01:39:09.322Z,9.26
2022-12-22T01:40:09.302Z,9.26
2022-12-22T01:41:09.291Z,9.28
2022-12-22T01:42:09.266Z,9.33
2022-12-22T01:43:09.221Z,9.31
2022-12-22T01:44:09.192Z,9.32
2022-12-22T01:45:09.170Z,9.33
2022-12-22T01:46:09.235Z,9.35
2022-12-22T01:47:09.118Z,9.32
2022-12-22T01:48:09.096Z,9.29
2022-12-22T01:49:09.064Z,9.24
2022-12-22T01:50:09.040Z,9.29
2022-12-22T01:51:09.011Z,9.35
2022-12-22T01:52:08.989Z,9.33
2022-12-22T01:53:08.960Z,9.21
2022-12-22T01:54:08.937Z,9.33
2022-12-22T01:55:08.932Z,9.35
2022-12-22T01:56:08.888Z,9.31
2022-12-22T01:57:08.911Z,9.23
2022-12-22T01:58:08.843Z,9.15
2022-12-22T01:59:08.861Z,9.15
2022-12-22T02:00:08.790Z,9.05
2022-12-22T02:01:08.830Z,9.15
2022-12-22T02:02:08.833Z,9.14
2022-12-22T02:03:08.778Z,9.18
2022-12-22T02:04:08.683Z,9.18
2022-12-22T02:05:08.660Z,9.14
2022-12-22T02:06:08.641Z,9.15
2022-12-22T02:07:08.608Z,9.15
2022-12-22T02:08:08.589Z,9.13
2022-12-22T02:09:08.561Z,9.23
2022-12-22T02:10:08.544Z,9.15
2022-12-22T02:11:08.509Z,9.11
2022-12-22T02:12:08.484Z,9.15
2022-12-22T02:13:08.486Z,9.08
2022-12-22T02:14:08.442Z,9.14
2022-12-22T02:15:08.416Z,9.18
2022-12-22T02:16:08.453Z,9.13
2022-12-22T02:17:08.382Z,9.13
2022-12-22T02:18:08.336Z,9.10
2022-12-22T02:19:08.307Z,9.14
2022-12-22T02:20:08.292Z,9.11
2022-12-22T02:21:08.256Z,9.13
2022-12-22T02:22:08.255Z,9.13
2022-12-22T02:23:08.213Z,9.14
2022-12-22T02:24:08.188Z,9.17
2022-12-22T02:25:08.156Z,9.15
2022-12-22T02:26:08.134Z,9.10
2022-12-22T02:27:08.128Z,9.13
2022-12-22T02:28:08.085Z,9.11
2022-12-22T02:29:08.087Z,9.17
2022-12-22T02:30:08.032Z,9.21
2022-12-22T02:31:08.071Z,9.18
2022-12-22T02:32:07.987Z,9.24
2022-12-22T02:33:10.161Z,9.23
2022-12-22T02:34:07.941Z,9.24
2022-12-22T02:35:07.914Z,9.18
2022-12-22T02:36:07.882Z,9.20
2022-12-22T02:37:07.852Z,9.21
2022-12-22T02:38:07.830Z,9.11
2022-12-22T02:39:07.805Z,9.15
2022-12-22T02:40:07.800Z,9.18
2022-12-22T02:41:07.759Z,9.23
2022-12-22T02:42:07.734Z,9.23
2022-12-22T02:43:07.702Z,9.18
2022-12-22T02:44:07.680Z,9.28
2022-12-22T02:45:07.729Z,9.21
2022-12-22T02:46:07.691Z,9.17
2022-12-22T02:47:07.599Z,9.20
2022-12-22T02:48:07.576Z,9.20
2022-12-22T02:49:07.554Z,9.14
2022-12-22T02:50:07.532Z,9.14
2022-12-22T02:51:07.512Z,9.20
2022-12-22T02:52:07.477Z,9.14
2022-12-22T02:53:07.462Z,9.17
2022-12-22T02:54:07.442Z,9.08
2022-12-22T02:55:07.400Z,9.10
2022-12-22T02:56:07.377Z,9.15
2022-12-22T02:57:07.345Z,9.20
2022-12-22T02:58:07.331Z,9.21
2022-12-22T02:59:07.305Z,9.17
2022-12-22T03:00:07.276Z,9.24
2022-12-22T03:01:07.270Z,9.13
2022-12-22T03:02:07.395Z,9.23
2022-12-22T03:03:07.384Z,9.17
2022-12-22T03:04:07.176Z,9.23
2022-12-22T03:05:07.156Z,9.17
2022-12-22T03:06:07.134Z,9.18
2022-12-22T03:07:07.097Z,9.32
2022-12-22T03:08:08.727Z,9.24
2022-12-22T03:09:07.049Z,9.20
2022-12-22T03:10:07.033Z,9.24
2022-12-22T03:11:06.997Z,9.23
2022-12-22T03:12:06.987Z,9.21
2022-12-22T03:13:07.023Z,9.21
2022-12-22T03:14:06.952Z,9.21
2022-12-22T03:15:06.900Z,9.14
2022-12-22T03:16:07.100Z,9.21
2022-12-22T03:17:06.872Z,9.15
2022-12-22T03:18:06.820Z,9.23
2022-12-22T03:19:06.795Z,9.23
2022-12-22T03:20:06.778Z,9.15
2022-12-22T03:21:06.749Z,9.17
2022-12-22T03:22:06.722Z,9.24
2022-12-22T03:23:06.691Z,9.23
2022-12-22T03:24:06.667Z,9.11
2022-12-22T03:25:06.641Z,9.18
2022-12-22T03:26:06.622Z,9.10
2022-12-22T03:27:06.593Z,9.15
2022-12-22T03:28:06.566Z,9.15
2022-12-22T03:29:06.546Z,9.15
2022-12-22T03:30:06.520Z,9.21
2022-12-22T03:31:06.528Z,9.18
2022-12-22T03:32:06.475Z,9.11
2022-12-22T03:33:06.494Z,9.15
2022-12-22T03:34:06.423Z,9.21
2022-12-22T03:35:06.391Z,9.15
2022-12-22T03:36:06.380Z,9.17
2022-12-22T03:37:06.339Z,9.24
2022-12-22T03:38:06.315Z,9.20
2022-12-22T03:39:06.295Z,9.17
2022-12-22T03:40:06.268Z,9.15
2022-12-22T03:41:06.239Z,9.18
2022-12-22T03:42:06.218Z,9.13
2022-12-22T03:43:06.185Z,9.18
2022-12-22T03:44:06.163Z,9.26
2022-12-22T03:45:06.136Z,9.15
2022-12-22T03:46:06.134Z,9.15
2022-12-22T03:47:06.196Z,9.15
2022-12-22T03:48:06.069Z,9.18
2022-12-22T03:49:06.084Z,9.24
2022-12-22T03:50:06.013Z,9.20
2022-12-22T03:51:05.984Z,9.21
2022-12-22T03:52:05.988Z,9.21
2022-12-22T03:53:05.956Z,9.28
2022-12-22T03:54:05.912Z,9.28
2022-12-22T03:55:05.881Z,9.24
2022-12-22T03:56:08.178Z,9.23
2022-12-22T03:57:05.832Z,9.26
2022-12-22T03:58:05.813Z,9.23
2022-12-22T03:59:05.783Z,9.28
2022-12-22T04:00:05.767Z,9.21
2022-12-22T04:01:05.830Z,9.23
2022-12-22T04:02:05.880Z,9.21
2022-12-22T04:03:06.042Z,9.21
2022-12-22T04:04:05.662Z,9.26
2022-12-22T04:05:05.656Z,9.24
2022-12-22T04:06:05.616Z,9.31
2022-12-22T04:07:05.579Z,9.24
2022-12-22T04:08:05.563Z,9.29
2022-12-22T04:09:05.533Z,9.29
2022-12-22T04:10:05.517Z,9.28
2022-12-22T04:11:05.481Z,9.26
2022-12-22T04:12:05.456Z,9.23
2022-12-22T04:13:05.432Z,9.32
2022-12-22T04:14:05.409Z,9.35
2022-12-22T04:15:05.382Z,9.28
2022-12-22T04:16:05.419Z,9.35
2022-12-22T04:17:05.349Z,9.28
2022-12-22T04:18:05.320Z,9.24
2022-12-22T04:19:05.287Z,9.26
2022-12-22T04:20:05.274Z,9.26
2022-12-22T04:21:05.254Z,9.35
2022-12-22T04:22:05.265Z,9.23
2022-12-22T04:23:05.183Z,9.24
2022-12-22T04:24:05.155Z,9.35
2022-12-22T04:25:05.134Z,9.20
2022-12-22T04:26:05.108Z,9.24
2022-12-22T04:27:05.077Z,9.26
2022-12-22T04:28:05.052Z,9.29
2022-12-22T04:29:05.080Z,9.24
2022-12-22T04:30:05.009Z,9.21
2022-12-22T04:31:04.986Z,9.24
2022-12-22T04:32:05.050Z,9.24
2022-12-22T04:33:04.943Z,9.23
2022-12-22T04:34:04.905Z,9.26
2022-12-22T04:35:04.892Z,9.21
2022-12-22T04:36:04.858Z,9.26
2022-12-22T04:37:14.912Z,9.36
2022-12-22T04:38:04.809Z,9.39
2022-12-22T04:39:04.795Z,9.26
2022-12-22T04:40:04.756Z,9.33
2022-12-22T04:41:04.736Z,9.33
2022-12-22T04:42:04.709Z,9.36
2022-12-22T04:43:04.676Z,9.23
2022-12-22T04:44:04.658Z,9.24
2022-12-22T04:45:04.629Z,9.23
2022-12-22T04:46:04.670Z,9.24
2022-12-22T04:47:04.593Z,9.28
2022-12-22T04:48:04.557Z,9.24
2022-12-22T04:49:04.526Z,9.24
2022-12-22T04:50:04.517Z,9.35
2022-12-22T04:51:04.489Z,9.29
2022-12-22T04:52:04.465Z,9.28
2022-12-22T04:53:04.491Z,9.24
2022-12-22T04:54:04.414Z,9.33
2022-12-22T04:55:04.380Z,9.26
2022-12-22T04:56:04.363Z,9.26
2022-12-22T04:57:04.344Z,9.36
2022-12-22T04:58:04.308Z,9.32
2022-12-22T04:59:04.286Z,9.24
2022-12-22T05:00:04.260Z,9.33
2022-12-22T05:01:04.247Z,9.33
2022-12-22T05:02:04.412Z,9.31
2022-12-22T05:03:04.325Z,9.32
2022-12-22T05:04:04.152Z,9.33
2022-12-22T05:05:04.129Z,9.35
2022-12-22T05:06:04.105Z,9.31
2022-12-22T05:07:04.081Z,9.31
2022-12-22T05:08:04.052Z,9.31
2022-12-22T05:09:04.064Z,9.35
2022-12-22T05:10:04.029Z,9.39
2022-12-22T05:11:04.010Z,9.26
2022-12-22T05:12:03.951Z,9.36
2022-12-22T05:13:03.930Z,9.38
2022-12-22T05:14:07.425Z,9.33
2022-12-22T05:15:03.882Z,9.29
2022-12-22T05:16:03.863Z,9.35
2022-12-22T05:17:03.900Z,9.31
2022-12-22T05:18:03.814Z,9.33
2022-12-22T05:19:03.777Z,9.35
2022-12-22T05:20:03.748Z,9.24
2022-12-22T05:21:03.738Z,9.33
2022-12-22T05:22:03.702Z,9.29
2022-12-22T05:23:03.684Z,9.31
2022-12-22T05:24:03.650Z,9.20
2022-12-22T05:25:03.667Z,9.20
2022-12-22T05:26:03.604Z,9.35
2022-12-22T05:27:03.598Z,9.32
2022-12-22T05:28:03.551Z,9.32
2022-12-22T05:29:03.536Z,9.39
2022-12-22T05:30:03.503Z,9.35
2022-12-22T05:31:03.567Z,9.40
2022-12-22T05:32:03.451Z,9.40
2022-12-22T05:33:03.439Z,9.43
2022-12-22T05:34:03.401Z,9.35
2022-12-22T05:35:03.403Z,9.32
2022-12-22T05:36:03.363Z,9.36
2022-12-22T05:37:03.327Z,9.33
2022-12-22T05:38:03.299Z,9.39
2022-12-22T05:39:03.277Z,9.39
2022-12-22T05:40:03.278Z,9.36
2022-12-22T05:41:04.623Z,9.32
2022-12-22T05:42:03.203Z,9.33
2022-12-22T05:43:03.178Z,9.28
2022-12-22T05:44:03.149Z,9.29
2022-12-22T05:45:03.131Z,9.26
2022-12-22T05:46:03.139Z,9.40
2022-12-22T05:47:03.074Z,9.32
2022-12-22T05:48:03.058Z,9.38
2022-12-22T05:49:03.033Z,9.35
2022-12-22T05:50:02.998Z,9.40
2022-12-22T05:51:02.979Z,9.40
2022-12-22T05:52:02.947Z,9.35
2022-12-22T05:53:02.931Z,9.40
2022-12-22T05:54:02.935Z,9.35
2022-12-22T05:55:02.877Z,9.43
2022-12-22T05:56:02.861Z,9.36
2022-12-22T05:57:02.847Z,9.38
2022-12-22T05:58:02.806Z,9.40
2022-12-22T05:59:02.781Z,9.35
2022-12-22T06:00:02.754Z,9.35
2022-12-22T06:01:02.745Z,9.31
2022-12-22T06:02:02.779Z,9.40
2022-12-22T06:03:02.873Z,9.42
2022-12-22T06:04:02.872Z,9.32
2022-12-22T06:05:02.656Z,9.32
2022-12-22T06:06:02.603Z,9.36
2022-12-22T06:07:02.590Z,9.40
2022-12-22T06:08:02.554Z,9.46
2022-12-22T06:09:02.534Z,9.40
2022-12-22T06:10:07.822Z,9.36
2022-12-22T06:11:02.489Z,9.46
2022-12-22T06:12:02.455Z,9.46
2022-12-22T06:13:02.452Z,9.35
2022-12-22T06:14:02.403Z,9.33
2022-12-22T06:15:02.380Z,9.38
2022-12-22T06:16:02.395Z,9.36
2022-12-22T06:17:02.328Z,9.33
2022-12-22T06:18:02.302Z,9.46
2022-12-22T06:19:02.284Z,9.39
2022-12-22T06:20:02.307Z,9.42
2022-12-22T06:21:02.245Z,9.35
2022-12-22T06:22:02.201Z,9.38
2022-12-22T06:23:02.208Z,9.40
2022-12-22T06:24:02.152Z,9.33
2022-12-22T06:25:02.142Z,9.38
2022-12-22T06:26:02.101Z,9.39
2022-12-22T06:27:02.085Z,9.31
2022-12-22T06:28:02.057Z,9.33
2022-12-22T06:29:02.058Z,9.40
2022-12-22T06:30:02.008Z,9.38
2022-12-22T06:31:02.038Z,9.31
2022-12-22T06:32:01.949Z,9.32
2022-12-22T06:33:01.937Z,9.32
2022-12-22T06:34:01.918Z,9.33
2022-12-22T06:35:01.888Z,9.33
2022-12-22T06:36:01.856Z,9.28
2022-12-22T06:37:01.826Z,9.31
2022-12-22T06:38:01.802Z,9.24
2022-12-22T06:39:01.779Z,9.24
2022-12-22T06:40:01.792Z,9.17
2022-12-22T06:41:01.728Z,9.17
2022-12-22T06:42:01.708Z,9.11
2022-12-22T06:43:08.008Z,9.23
2022-12-22T06:44:01.648Z,9.21
2022-12-22T06:45:01.659Z,9.18
2022-12-22T06:46:01.668Z,9.15
2022-12-22T06:47:01.586Z,9.17
2022-12-22T06:48:01.555Z,9.04
2022-12-22T06:49:01.525Z,9.14
2022-12-22T06:50:01.529Z,9.14
2022-12-22T06:51:01.493Z,9.17
2022-12-22T06:52:01.449Z,9.11
2022-12-22T06:53:01.435Z,9.08
2022-12-22T06:54:01.401Z,8.95
2022-12-22T06:55:01.378Z,9.02
2022-12-22T06:56:01.350Z,9.10
2022-12-22T06:57:01.330Z,9.08
2022-12-22T06:58:01.304Z,9.08
2022-12-22T06:59:01.277Z,9.11
2022-12-22T07:00:01.293Z,9.18
2022-12-22T07:01:01.250Z,9.14
2022-12-22T07:02:01.360Z,9.17
2022-12-22T07:03:01.563Z,9.18
2022-12-22T07:04:01.246Z,9.11
2022-12-22T07:05:01.130Z,9.20
2022-12-22T07:06:01.120Z,9.15
2022-12-22T07:07:01.080Z,9.10
2022-12-22T07:08:07.588Z,9.10
2022-12-22T07:09:01.023Z,9.10
2022-12-22T07:10:01.027Z,9.10
2022-12-22T07:11:00.972Z,8.99
2022-12-22T07:12:00.961Z,9.02
2022-12-22T07:13:00.937Z,9.01
2022-12-22T07:14:00.905Z,9.05
2022-12-22T07:15:00.882Z,9.13
2022-12-22T07:16:01.870Z,9.14
2022-12-22T07:17:00.871Z,9.14
2022-12-22T07:18:00.808Z,9.10
2022-12-22T07:19:00.779Z,9.20
2022-12-22T07:20:00.751Z,9.24
2022-12-22T07:21:00.744Z,9.21
2022-12-22T07:22:00.714Z,9.24
2022-12-22T07:23:00.682Z,9.21
2022-12-22T07:24:00.655Z,9.21
2022-12-22T07:25:00.631Z,9.17
2022-12-22T07:26:00.634Z,9.26
2022-12-22T07:27:00.583Z,9.18
2022-12-22T07:28:00.557Z,9.15
2022-12-22T07:29:00.525Z,9.15
2022-12-22T07:30:00.497Z,9.14
2022-12-22T07:31:00.539Z,9.11
2022-12-22T07:32:00.450Z,9.05
2022-12-22T07:33:00.458Z,8.98
2022-12-22T07:34:00.399Z,9.02
2022-12-22T07:35:05.334Z,8.96
2022-12-22T07:36:00.346Z,8.98
2022-12-22T07:37:00.332Z,8.98
2022-12-22T07:38:00.297Z,9.01
2022-12-22T07:39:00.276Z,9.15
2022-12-22T07:40:00.256Z,9.21
2022-12-22T07:41:04.850Z,9.20
2022-12-22T07:42:00.196Z,9.23
2022-12-22T07:43:00.185Z,9.23
2022-12-22T07:44:00.150Z,9.26
2022-12-22T07:45:00.163Z,9.26
2022-12-22T07:46:00.342Z,9.26
2022-12-22T07:47:00.210Z,9.24
2022-12-22T07:48:00.077Z,9.24
2022-12-22T07:49:00.074Z,9.26
2022-12-22T07:50:00.011Z,9.28
2022-12-22T07:50:59.969Z,9.26
2022-12-22T07:51:59.941Z,9.31
2022-12-22T07:52:59.931Z,9.26
2022-12-22T07:53:59.894Z,9.31
2022-12-22T07:54:59.883Z,9.31
2022-12-22T07:55:59.846Z,9.26
2022-12-22T07:56:59.830Z,9.28
2022-12-22T07:57:59.795Z,9.29
2022-12-22T07:58:59.774Z,9.26
2022-12-22T07:59:59.744Z,9.35
2022-12-22T08:00:59.728Z,9.31
2022-12-22T08:01:59.804Z,9.33
2022-12-22T08:02:59.817Z,9.35
2022-12-22T08:03:59.642Z,9.36
2022-12-22T08:04:59.704Z,9.31
2022-12-22T08:05:59.594Z,9.29
2022-12-22T08:06:59.575Z,9.33
2022-12-22T08:07:59.550Z,9.26
2022-12-22T08:08:59.550Z,9.29
2022-12-22T08:09:59.492Z,9.33
2022-12-22T08:10:59.470Z,9.33
2022-12-22T08:11:59.443Z,9.32
2022-12-22T08:12:59.496Z,9.26
2022-12-22T08:14:01.930Z,9.33
2022-12-22T08:14:59.371Z,9.33
2022-12-22T08:15:59.369Z,9.31
2022-12-22T08:16:59.326Z,9.31
2022-12-22T08:17:59.391Z,9.33
2022-12-22T08:18:59.288Z,9.31
2022-12-22T08:19:59.239Z,9.36
2022-12-22T08:20:59.238Z,9.39
2022-12-22T08:21:59.184Z,9.28
2022-12-22T08:22:59.169Z,9.33
2022-12-22T08:23:59.166Z,9.33
2022-12-22T08:24:59.111Z,9.38
2022-12-22T08:25:59.107Z,9.31
2022-12-22T08:26:59.071Z,9.33
2022-12-22T08:27:59.045Z,9.35
2022-12-22T08:28:59.010Z,9.40
2022-12-22T08:29:58.982Z,9.38
2022-12-22T08:30:58.971Z,9.31
2022-12-22T08:31:58.997Z,9.32
2022-12-22T08:32:58.906Z,9.36
2022-12-22T08:33:58.888Z,9.40
2022-12-22T08:34:58.861Z,9.42
2022-12-22T08:36:05.853Z,9.39
2022-12-22T08:36:58.843Z,9.46
2022-12-22T08:37:58.780Z,9.47
2022-12-22T08:38:58.785Z,9.43
2022-12-22T08:39:58.735Z,9.46
2022-12-22T08:40:58.709Z,9.39
2022-12-22T08:41:58.706Z,9.48
2022-12-22T08:42:58.657Z,9.43
2022-12-22T08:43:58.635Z,9.47
2022-12-22T08:44:58.616Z,9.47
2022-12-22T08:45:58.590Z,9.43
2022-12-22T08:46:58.716Z,9.42
2022-12-22T08:47:58.550Z,9.48
2022-12-22T08:48:58.509Z,9.47
2022-12-22T08:49:58.479Z,9.48
2022-12-22T08:50:58.454Z,9.50
2022-12-22T08:51:58.422Z,9.48
2022-12-22T08:52:58.440Z,9.54
2022-12-22T08:54:06.720Z,9.51
2022-12-22T08:54:58.356Z,9.54
2022-12-22T08:55:58.323Z,9.43
2022-12-22T08:56:58.299Z,9.56
2022-12-22T08:57:58.270Z,9.53
2022-12-22T08:58:58.257Z,9.57
2022-12-22T08:59:58.224Z,9.58
2022-12-22T09:00:58.262Z,9.57
2022-12-22T09:01:58.346Z,9.61
2022-12-22T09:02:58.271Z,9.61
2022-12-22T09:03:58.120Z,9.58
2022-12-22T09:04:58.098Z,9.58
2022-12-22T09:05:58.081Z,9.60
2022-12-22T09:06:58.046Z,9.56
2022-12-22T09:07:58.027Z,9.60
2022-12-22T09:08:58.026Z,9.58
2022-12-22T09:09:57.976Z,9.66
2022-12-22T09:10:57.950Z,9.69
2022-12-22T09:11:57.917Z,9.66
2022-12-22T09:12:57.895Z,9.64
2022-12-22T09:13:57.869Z,9.68
2022-12-22T09:14:57.848Z,9.74
2022-12-22T09:15:57.859Z,9.68
2022-12-22T09:16:57.932Z,9.74
2022-12-22T09:17:57.777Z,9.71
2022-12-22T09:18:57.765Z,9.72
2022-12-22T09:19:57.725Z,9.81
2022-12-22T09:20:57.702Z,9.79
2022-12-22T09:21:57.666Z,9.74
2022-12-22T09:22:57.643Z,9.69
2022-12-22T09:23:57.620Z,9.71
2022-12-22T09:24:57.622Z,9.76
2022-12-22T09:25:57.573Z,9.81
2022-12-22T09:26:57.540Z,9.76
2022-12-22T09:27:57.512Z,9.76
2022-12-22T09:28:57.492Z,9.86
2022-12-22T09:29:57.465Z,9.86
2022-12-22T09:30:57.445Z,9.89
2022-12-22T09:31:57.534Z,9.78
2022-12-22T09:32:57.392Z,9.79
2022-12-22T09:33:57.366Z,9.84
2022-12-22T09:34:57.354Z,9.86
2022-12-22T09:35:57.319Z,9.86
2022-12-22T09:36:57.332Z,9.86
2022-12-22T09:37:57.282Z,9.84
2022-12-22T09:38:57.272Z,9.87
2022-12-22T09:39:57.220Z,9.84
2022-12-22T09:40:57.217Z,9.79
2022-12-22T09:41:57.182Z,9.81
2022-12-22T09:42:57.147Z,9.76
2022-12-22T09:43:57.114Z,9.86
2022-12-22T09:44:57.093Z,9.81
2022-12-22T09:45:57.105Z,9.86
2022-12-22T09:46:57.078Z,9.87
2022-12-22T09:47:57.027Z,9.91
2022-12-22T09:48:56.998Z,9.87
2022-12-22T09:49:56.965Z,9.90
2022-12-22T09:50:56.933Z,9.90
2022-12-22T09:51:56.943Z,9.94
2022-12-22T09:52:56.888Z,9.91
2022-12-22T09:53:56.863Z,9.89
2022-12-22T09:54:56.834Z,9.93
2022-12-22T09:55:56.805Z,9.97
2022-12-22T09:56:56.816Z,9.87
2022-12-22T09:57:56.763Z,9.90
2022-12-22T09:58:56.731Z,9.93
2022-12-22T09:59:56.714Z,9.90
2022-12-22T10:00:56.792Z,9.79
2022-12-22T10:01:56.788Z,9.87
2022-12-22T10:02:56.693Z,9.89
2022-12-22T10:04:00.445Z,9.89
2022-12-22T10:04:56.579Z,9.91
2022-12-22T10:05:56.558Z,9.87
2022-12-22T10:06:56.534Z,9.93
2022-12-22T10:07:56.506Z,9.90
2022-12-22T10:08:56.481Z,9.87
2022-12-22T10:09:56.497Z,9.90
2022-12-22T10:10:56.434Z,9.87
2022-12-22T10:11:56.426Z,9.90
2022-12-22T10:12:56.474Z,9.93
2022-12-22T10:13:56.365Z,9.86
2022-12-22T10:14:56.328Z,9.87
2022-12-22T10:15:56.303Z,9.93
2022-12-22T10:16:56.359Z,9.89
2022-12-22T10:17:56.269Z,9.90
2022-12-22T10:18:56.233Z,9.91
2022-12-22T10:19:56.205Z,9.91
2022-12-22T10:20:56.194Z,9.91
2022-12-22T10:21:56.158Z,9.91
2022-12-22T10:22:56.126Z,9.93
2022-12-22T10:23:56.101Z,9.91
2022-12-22T10:24:56.080Z,9.90
2022-12-22T10:26:56.021Z,9.87
2022-12-22T10:27:55.996Z,9.90
2022-12-22T10:28:56.000Z,9.87
2022-12-22T10:29:55.961Z,9.86
2022-12-22T10:30:55.929Z,9.87
2022-12-22T10:31:55.939Z,9.90
2022-12-22T10:32:55.875Z,9.79
2022-12-22T10:33:55.850Z,9.87
2022-12-22T10:34:55.822Z,9.87
2022-12-22T10:35:55.796Z,9.76
2022-12-22T10:36:55.769Z,9.86
2022-12-22T10:37:55.768Z,9.84
2022-12-22T10:38:55.724Z,9.84
2022-12-22T10:39:55.705Z,9.86
2022-12-22T10:41:01.757Z,9.86
2022-12-22T10:41:55.665Z,9.81
2022-12-22T10:42:55.621Z,9.87
2022-12-22T10:43:55.597Z,9.89
2022-12-22T10:44:55.593Z,9.93
2022-12-22T10:45:55.657Z,9.94
2022-12-22T10:46:55.521Z,9.90
2022-12-22T10:47:55.493Z,9.89
2022-12-22T10:48:55.469Z,9.83
2022-12-22T10:50:34.917Z,9.86
2022-12-22T10:51:34.895Z,9.84
2022-12-22T10:52:34.875Z,9.83
2022-12-22T10:53:34.840Z,9.78
2022-12-22T10:54:34.840Z,9.81
2022-12-22T10:55:34.782Z,9.79
2022-12-22T10:56:34.769Z,9.84
2022-12-22T10:57:34.749Z,9.79
2022-12-22T10:58:34.716Z,9.87
2022-12-22T10:59:34.692Z,9.74
2022-12-22T11:00:34.688Z,9.83
2022-12-22T11:01:34.717Z,9.78
2022-12-22T11:02:34.823Z,9.83
2022-12-22T11:03:34.707Z,9.81
2022-12-22T11:04:34.570Z,9.86
2022-12-22T11:05:34.543Z,9.81
2022-12-22T11:06:34.519Z,9.84
2022-12-22T11:07:34.495Z,9.89
2022-12-22T11:08:34.469Z,9.83
2022-12-22T11:09:35.561Z,9.83
2022-12-22T11:10:34.420Z,9.86
2022-12-22T11:11:34.391Z,9.90
2022-12-22T11:12:34.372Z,9.91
2022-12-22T11:13:34.340Z,9.91
2022-12-22T11:14:34.337Z,9.93
2022-12-22T11:15:34.288Z,9.89
2022-12-22T11:16:34.361Z,9.93
2022-12-22T11:17:34.235Z,10.02
2022-12-22T11:18:34.215Z,9.91
2022-12-22T11:19:34.190Z,9.91
2022-12-22T11:20:34.165Z,10.02
2022-12-22T11:21:34.138Z,9.97
2022-12-22T11:22:34.120Z,10.05
2022-12-22T11:23:34.084Z,9.96
2022-12-22T11:24:34.065Z,10.08
2022-12-22T11:25:34.037Z,9.89
2022-12-22T11:26:34.013Z,9.89
2022-12-22T11:27:33.988Z,9.83
2022-12-22T11:28:33.968Z,9.84
2022-12-22T11:29:33.946Z,9.84
2022-12-22T11:30:34.000Z,9.76
2022-12-22T11:31:33.924Z,9.78
2022-12-22T11:32:33.889Z,9.71
2022-12-22T11:33:33.844Z,9.74
2022-12-22T11:34:33.816Z,9.78
2022-12-22T11:35:33.787Z,9.86
2022-12-22T11:36:33.764Z,9.83
2022-12-22T11:37:33.737Z,9.74
2022-12-22T11:38:33.719Z,9.71
2022-12-22T11:39:33.684Z,9.75
2022-12-22T11:40:33.668Z,9.66
2022-12-22T11:41:33.647Z,9.69
2022-12-22T11:42:33.613Z,9.75
2022-12-22T11:43:33.582Z,9.74
2022-12-22T11:44:33.563Z,9.79
2022-12-22T11:45:39.130Z,9.69
2022-12-22T11:46:33.582Z,9.86
2022-12-22T11:47:33.490Z,9.79
2022-12-22T11:48:33.496Z,9.81
2022-12-22T11:49:33.436Z,9.75
2022-12-22T11:51:00.965Z,9.76
2022-12-22T11:51:33.400Z,9.78
2022-12-22T11:52:33.368Z,9.72
2022-12-22T11:53:33.329Z,9.84
2022-12-22T11:54:33.312Z,9.81
2022-12-22T11:55:33.295Z,9.78
2022-12-22T11:56:33.260Z,9.86
2022-12-22T11:57:33.233Z,9.83
2022-12-22T11:58:33.216Z,9.83
2022-12-22T11:59:33.194Z,9.84
2022-12-22T12:01:04.193Z,9.93
2022-12-22T12:01:33.177Z,9.87
2022-12-22T12:02:33.178Z,9.79
2022-12-22T12:03:33.296Z,9.86
2022-12-22T12:04:33.108Z,9.81
2022-12-22T12:05:33.030Z,9.81
2022-12-22T12:06:33.010Z,9.81
2022-12-22T12:07:33.034Z,9.86
2022-12-22T12:08:32.959Z,9.79
2022-12-22T12:09:32.929Z,9.81
2022-12-22T12:10:32.907Z,9.87
2022-12-22T12:11:32.883Z,9.78
2022-12-22T12:12:32.859Z,9.84
2022-12-22T12:13:37.013Z,9.79
2022-12-22T12:14:32.804Z,9.86
2022-12-22T12:15:32.777Z,9.81
2022-12-22T12:16:32.870Z,9.86
2022-12-22T12:17:32.728Z,9.74
2022-12-22T12:18:32.709Z,9.81
2022-12-22T12:19:32.680Z,9.86
2022-12-22T12:20:32.676Z,9.81
2022-12-22T12:21:32.627Z,9.79
2022-12-22T12:22:32.607Z,9.83
2022-12-22T12:23:32.586Z,9.90
2022-12-22T12:24:32.553Z,9.94
2022-12-22T12:25:32.527Z,9.97
2022-12-22T12:26:32.499Z,9.93
2022-12-22T12:27:32.476Z,10.02
2022-12-22T12:28:32.459Z,10.02
2022-12-22T12:29:32.458Z,10.09
2022-12-22T12:30:40.036Z,10.07
2022-12-22T12:31:32.399Z,10.09
2022-12-22T12:32:32.354Z,10.09
2022-12-22T12:33:32.331Z,10.02
2022-12-22T12:34:32.306Z,10.09
2022-12-22T12:35:32.287Z,9.99
2022-12-22T12:36:32.274Z,9.96
2022-12-22T12:37:32.247Z,10.02
2022-12-22T12:39:06.348Z,10.05
2022-12-22T12:39:32.177Z,10.04
2022-12-22T12:40:32.151Z,10.07
2022-12-22T12:41:32.124Z,10.04
2022-12-22T12:42:32.138Z,10.12
2022-12-22T12:43:32.081Z,10.01
2022-12-22T12:44:32.049Z,10.11
2022-12-22T12:45:32.045Z,10.02
2022-12-22T12:46:32.105Z,10.07
2022-12-22T12:47:31.995Z,10.17
2022-12-22T12:48:31.957Z,10.17
2022-12-22T12:49:31.921Z,10.14
2022-12-22T12:50:31.916Z,10.25
2022-12-22T12:51:31.882Z,10.15
2022-12-22T12:52:31.870Z,10.17
2022-12-22T12:53:31.834Z,10.14
2022-12-22T12:54:31.810Z,10.15
2022-12-22T12:55:32.938Z,10.17
2022-12-22T12:56:31.761Z,10.09
2022-12-22T12:57:31.747Z,10.14
2022-12-22T12:58:31.702Z,10.12
2022-12-22T12:59:31.677Z,10.12
2022-12-22T13:00:31.713Z,10.09
2022-12-22T13:01:31.869Z,10.08
2022-12-22T13:02:31.764Z,10.11
2022-12-22T13:04:01.662Z,10.17
2022-12-22T13:04:31.631Z,10.12
2022-12-22T13:05:31.548Z,10.14
2022-12-22T13:06:31.499Z,10.15
2022-12-22T13:07:31.477Z,10.25
2022-12-22T13:08:31.474Z,10.14
2022-12-22T13:09:50.023Z,10.23
2022-12-22T13:10:31.402Z,10.26
2022-12-22T13:12:10.503Z,10.22
2022-12-22T13:12:31.360Z,10.32
2022-12-22T13:13:31.340Z,10.23
2022-12-22T13:14:31.372Z,10.29
2022-12-22T13:15:31.286Z,10.26
2022-12-22T13:16:31.412Z,10.33
2022-12-22T13:17:31.273Z,10.38